Time;durP1;ratioP1;P1;durP2;ratioP2;P2;SDS_P1;SDS_P2;PMS_P1;PMS_P2;Temp;Humidity;BMP_temperature;BMP_pressure;BME280_temperature;BME280_humidity;BME280_pressure;Samples;Min_cycle;Max_cycle;Signal;HPM_P1;HPM_P2
2023/09/14 00:01:46;;;;;;;;;17.25;14.25;;;;;20.98;64.71;101473.00;5077581;27;45405;-67
2023/09/14 00:04:11;;;;;;;;;23.00;15.50;;;;;20.96;64.32;101475.75;5055560;28;45524;-69
2023/09/14 00:06:37;;;;;;;;;15.25;12.75;;;;;20.96;64.41;101473.09;5057678;28;63553;-69
2023/09/14 00:09:02;;;;;;;;;17.50;14.50;;;;;20.97;64.48;101477.50;5079038;27;45454;-68
2023/09/14 00:11:28;;;;;;;;;21.50;14.00;;;;;20.98;64.60;101476.56;5066704;28;45534;-69
2023/09/14 00:13:53;;;;;;;;;15.25;13.00;;;;;20.99;64.54;101475.59;5076344;27;73095;-68
2023/09/14 00:16:18;;;;;;;;;16.75;16.25;;;;;20.95;64.04;101473.22;5055393;28;47505;-67
2023/09/14 00:18:44;;;;;;;;;22.25;15.50;;;;;20.87;64.39;101473.66;5072335;27;64287;-68
2023/09/14 00:21:09;;;;;;;;;17.25;14.75;;;;;20.81;64.93;101471.38;5073108;27;45264;-68
2023/09/14 00:23:35;;;;;;;;;20.75;16.75;;;;;20.75;65.27;101483.22;5073222;27;45455;-67
2023/09/14 00:26:00;;;;;;;;;17.50;13.75;;;;;20.73;65.28;101473.59;5072200;27;69111;-68
2023/09/14 00:28:25;;;;;;;;;20.00;14.00;;;;;20.71;65.00;101468.38;5068838;27;66916;-68
2023/09/14 00:30:52;;;;;;;;;19.75;17.75;;;;;20.73;65.48;101479.78;5071036;27;61880;-67
2023/09/14 00:33:17;;;;;;;;;21.75;16.75;;;;;20.73;65.70;101471.78;5073901;27;45480;-68
2023/09/14 00:35:46;;;;;;;;;17.25;15.50;;;;;20.69;65.23;101478.25;5075624;27;45447;-67
2023/09/14 00:38:12;;;;;;;;;20.25;16.00;;;;;20.72;65.65;101482.53;5052889;28;45431;-68
2023/09/14 00:40:38;;;;;;;;;15.25;15.00;;;;;20.72;65.99;101475.41;5057689;28;45930;-68
2023/09/14 00:43:03;;;;;;;;;22.00;16.00;;;;;20.72;65.97;101471.91;5052388;28;45493;-68
2023/09/14 00:45:29;;;;;;;;;18.00;15.25;;;;;20.72;65.58;101477.22;5091787;27;47394;-68
2023/09/14 00:47:59;;;;;;;;;15.00;14.25;;;;;20.72;65.98;101478.06;5064915;27;46233;-69
2023/09/14 00:50:28;;;;;;;;;17.25;15.50;;;;;20.67;65.56;101480.97;5071604;27;45586;-69
2023/09/14 00:53:03;;;;;;;;;17.25;13.75;;;;;20.67;65.48;101490.78;5074752;28;45154;-68
2023/09/14 00:55:29;;;;;;;;;17.75;17.00;;;;;20.61;65.71;101477.78;5076099;27;46299;-69
2023/09/14 00:57:58;;;;;;;;;21.75;18.50;;;;;20.57;65.92;101473.59;5069145;27;45256;-69
2023/09/14 01:00:27;;;;;;;;;19.25;16.00;;;;;20.54;65.87;101482.63;5064589;27;53337;-69
2023/09/14 01:02:58;;;;;;;;;16.00;14.25;;;;;20.52;66.59;101475.66;5053023;28;45309;-68
2023/09/14 01:05:27;;;;;;;;;15.25;13.75;;;;;20.47;66.39;101474.13;5062665;27;45473;-67
2023/09/14 01:07:52;;;;;;;;;17.50;14.75;;;;;20.49;66.86;101477.56;5074815;27;45273;-68
2023/09/14 01:10:18;;;;;;;;;16.50;15.00;;;;;20.48;66.13;101481.13;5068655;27;45534;-68
2023/09/14 01:12:47;;;;;;;;;16.75;14.00;;;;;20.45;67.01;101475.13;5072443;27;54563;-68
2023/09/14 01:15:20;;;;;;;;;16.00;14.00;;;;;20.45;67.06;101483.13;5053916;28;47416;-69
2023/09/14 01:18:17;;;;;;;;;16.25;13.75;;;;;20.39;67.13;101462.22;5059485;28;45451;-68
2023/09/14 01:21:25;;;;;;;;;23.25;13.75;;;;;20.39;66.51;101479.00;5077718;27;45714;-68
2023/09/14 01:24:05;;;;;;;;;20.00;13.50;;;;;20.38;66.83;101482.63;5073363;27;45460;-68
2023/09/14 01:26:32;;;;;;;;;19.25;15.25;;;;;20.31;66.84;101478.59;5064926;28;45332;-68
2023/09/14 01:28:59;;;;;;;;;16.00;13.25;;;;;20.29;67.26;101478.69;5071112;27;45309;-68
2023/09/14 01:31:24;;;;;;;;;15.25;14.75;;;;;20.28;67.58;101476.97;5062950;27;45410;-69
2023/09/14 01:33:50;;;;;;;;;17.75;15.25;;;;;20.27;67.75;101480.56;5065917;27;45451;-69
2023/09/14 01:36:49;;;;;;;;;15.50;15.50;;;;;20.27;67.66;101485.00;5062053;28;45758;-67
2023/09/14 01:39:15;;;;;;;;;18.00;14.50;;;;;20.26;67.64;101485.97;5074160;28;45216;-68
2023/09/14 01:41:41;;;;;;;;;18.50;16.50;;;;;20.24;67.04;101479.91;5071903;27;71144;-68
2023/09/14 01:44:07;;;;;;;;;17.50;13.25;;;;;20.23;67.58;101479.00;5065514;28;45252;-68
2023/09/14 01:46:33;;;;;;;;;16.50;15.25;;;;;20.19;67.39;101477.47;5062998;28;45997;-68
2023/09/14 01:48:58;;;;;;;;;18.75;15.00;;;;;20.22;67.34;101484.41;5062490;28;72165;-68
2023/09/14 01:51:24;;;;;;;;;24.00;15.75;;;;;20.15;67.51;101491.88;5071667;27;45306;-68
2023/09/14 01:53:49;;;;;;;;;19.50;15.00;;;;;20.06;67.69;101482.63;5070925;28;45335;-68
2023/09/14 01:56:14;;;;;;;;;15.25;13.00;;;;;19.97;67.77;101480.44;5076920;28;46334;-68
2023/09/14 01:58:40;;;;;;;;;19.25;16.25;;;;;19.93;68.16;101481.56;5077322;28;59883;-68
2023/09/14 02:01:05;;;;;;;;;20.00;16.75;;;;;19.88;68.38;101479.19;5050369;28;56706;-68
2023/09/14 02:03:30;;;;;;;;;23.25;18.50;;;;;19.85;68.51;101478.47;5073464;27;45276;-68
2023/09/14 02:06:02;;;;;;;;;47.25;35.25;;;;;19.81;68.95;101479.56;5072841;28;67728;-68
2023/09/14 02:08:29;;;;;;;;;56.75;43.75;;;;;19.73;69.06;101488.81;5068229;28;45278;-68
2023/09/14 02:10:54;;;;;;;;;59.25;44.50;;;;;19.64;69.45;101476.00;5077379;28;45474;-67
2023/09/14 02:13:20;;;;;;;;;57.00;44.75;;;;;19.65;69.16;101485.66;5068868;27;69100;-67
2023/09/14 02:15:45;;;;;;;;;53.75;42.25;;;;;19.57;69.80;101479.06;5073871;27;72876;-68
2023/09/14 02:18:10;;;;;;;;;47.25;39.25;;;;;19.52;69.79;101477.50;5066793;28;45509;-67
2023/09/14 02:20:36;;;;;;;;;48.50;39.25;;;;;19.48;70.04;101481.25;5070525;28;54920;-68
2023/09/14 02:23:02;;;;;;;;;54.00;38.25;;;;;19.43;70.13;101477.13;5070651;27;45374;-68
2023/09/14 02:25:27;;;;;;;;;42.75;33.50;;;;;19.39;70.23;101483.53;5070232;27;47110;-68
2023/09/14 02:27:53;;;;;;;;;33.00;29.75;;;;;19.34;70.56;101475.81;5069606;27;55865;-67
2023/09/14 02:30:18;;;;;;;;;35.75;31.00;;;;;19.33;70.79;101474.94;5070603;27;45595;-67
2023/09/14 02:32:44;;;;;;;;;37.50;27.50;;;;;19.27;70.67;101472.63;5066750;28;45458;-68
2023/09/14 02:35:09;;;;;;;;;27.25;21.75;;;;;19.27;70.81;101467.31;5077752;27;46102;-67
2023/09/14 02:37:34;;;;;;;;;26.25;21.75;;;;;19.27;71.13;101475.28;5070906;28;45347;-67
2023/09/14 02:40:00;;;;;;;;;24.25;21.00;;;;;19.26;70.46;101472.69;5075301;28;45270;-67
2023/09/14 02:42:25;;;;;;;;;21.50;18.75;;;;;19.23;71.03;101471.06;5065675;27;66826;-68
2023/09/14 02:44:50;;;;;;;;;20.75;18.75;;;;;19.21;71.39;101470.28;5077480;28;46206;-68
2023/09/14 02:47:16;;;;;;;;;23.75;19.75;;;;;19.23;71.70;101470.19;5072906;28;66408;-68
2023/09/14 02:49:41;;;;;;;;;19.00;17.50;;;;;19.25;71.92;101468.34;5069586;28;45286;-69
2023/09/14 02:52:07;;;;;;;;;19.50;17.50;;;;;19.27;71.31;101463.81;5070192;27;67181;-68
2023/09/14 02:54:32;;;;;;;;;22.75;18.75;;;;;19.26;70.88;101464.72;5075183;28;45499;-69
2023/09/14 02:56:57;;;;;;;;;20.00;18.25;;;;;19.24;70.97;101458.66;5072439;27;53477;-67
2023/09/14 02:59:23;;;;;;;;;19.00;16.00;;;;;19.21;71.74;101450.84;5072953;28;52466;-67
2023/09/14 03:01:49;;;;;;;;;19.25;17.50;;;;;19.21;71.81;101459.69;5074754;28;69159;-67
2023/09/14 03:04:16;;;;;;;;;25.25;17.50;;;;;19.16;71.50;101461.72;5074556;27;45415;-67
2023/09/14 03:06:41;;;;;;;;;18.00;12.50;;;;;19.15;71.67;101457.31;5072364;28;45543;-67
2023/09/14 03:09:06;;;;;;;;;20.25;15.00;;;;;19.09;71.61;101455.84;5072194;28;59438;-67
2023/09/14 03:11:32;;;;;;;;;22.00;17.00;;;;;19.06;71.84;101458.66;5071092;27;47709;-68
2023/09/14 03:13:57;;;;;;;;;17.00;13.50;;;;;19.04;72.11;101459.69;5077129;27;45558;-68
2023/09/14 03:16:22;;;;;;;;;16.75;15.50;;;;;19.01;72.53;101457.19;5076720;28;73329;-67
2023/09/14 03:18:48;;;;;;;;;20.25;17.50;;;;;19.00;73.03;101456.34;5076346;27;65261;-67
2023/09/14 03:21:24;;;;;;;;;22.00;15.50;;;;;19.01;72.56;101449.22;5076334;27;73080;-68
2023/09/14 03:23:50;;;;;;;;;21.75;16.00;;;;;19.05;72.63;101445.47;5073269;28;45424;-68
2023/09/14 03:26:15;;;;;;;;;18.75;16.25;;;;;19.06;72.72;101455.16;5076466;28;45406;-68
2023/09/14 03:28:41;;;;;;;;;20.75;17.75;;;;;19.08;72.65;101453.28;5077869;27;45478;-68
2023/09/14 03:31:08;;;;;;;;;18.25;15.50;;;;;19.08;72.67;101451.47;5063759;28;68189;-67
2023/09/14 03:33:33;;;;;;;;;18.75;17.00;;;;;19.07;73.13;101447.13;5073852;27;45466;-67
2023/09/14 03:35:59;;;;;;;;;20.75;20.50;;;;;19.07;73.06;101444.47;5064816;27;62603;-68
2023/09/14 03:38:26;;;;;;;;;21.25;19.25;;;;;19.09;73.07;101444.38;5071517;27;45416;-69
2023/09/14 03:40:51;;;;;;;;;22.25;19.00;;;;;19.09;72.76;101439.09;5078436;27;61243;-69
2023/09/14 03:43:16;;;;;;;;;19.00;17.00;;;;;19.11;72.90;101437.22;5076463;27;63689;-69
2023/09/14 03:45:42;;;;;;;;;20.50;18.25;;;;;19.12;72.60;101444.22;5073755;27;58872;-68
2023/09/14 03:48:07;;;;;;;;;20.75;18.00;;;;;19.12;72.30;101442.44;5071117;27;50572;-67
2023/09/14 03:50:32;;;;;;;;;19.00;17.00;;;;;19.11;72.81;101440.72;5071545;27;49273;-67
2023/09/14 03:52:58;;;;;;;;;21.50;16.25;;;;;19.13;72.71;101438.81;5068187;27;70308;-68
2023/09/14 03:55:23;;;;;;;;;20.50;17.50;;;;;19.15;72.93;101441.41;5056042;28;45368;-67
2023/09/14 03:57:48;;;;;;;;;21.50;16.25;;;;;19.11;72.91;101445.16;5079254;27;46761;-67
2023/09/14 04:00:17;;;;;;;;;15.25;13.00;;;;;19.13;72.26;101441.47;5077254;27;52179;-67
2023/09/14 04:02:43;;;;;;;;;23.00;19.00;;;;;19.12;72.54;101441.56;5076822;27;45357;-67
2023/09/14 04:05:16;;;;;;;;;23.50;21.50;;;;;19.13;72.25;101438.81;5064196;27;45287;-67
2023/09/14 04:07:41;;;;;;;;;22.50;19.50;;;;;19.13;72.07;101438.81;5088447;27;45684;-69
2023/09/14 04:10:10;;;;;;;;;19.75;16.00;;;;;19.15;72.21;101441.41;5078529;27;45372;-68
2023/09/14 04:12:40;;;;;;;;;19.75;17.25;;;;;19.15;72.05;101442.25;5073832;27;45988;-68
2023/09/14 04:15:06;;;;;;;;;25.50;20.00;;;;;19.17;71.72;101439.53;5073479;27;45800;-69
2023/09/14 04:17:31;;;;;;;;;20.00;19.50;;;;;19.18;71.85;101438.59;5073136;27;45345;-68
2023/09/14 04:19:56;;;;;;;;;22.50;20.25;;;;;19.19;71.77;101429.69;5074369;28;45568;-69
2023/09/14 04:22:22;;;;;;;;;23.75;19.00;;;;;19.19;71.75;101434.16;5081394;27;75326;-69
2023/09/14 04:24:49;;;;;;;;;20.00;18.25;;;;;19.19;71.72;101434.16;5078182;28;63122;-68
2023/09/14 04:27:14;;;;;;;;;19.50;17.25;;;;;19.19;71.56;101432.34;5070068;27;45346;-68
2023/09/14 04:29:40;;;;;;;;;28.25;20.50;;;;;19.17;71.56;101423.59;5071181;27;65807;-68
2023/09/14 04:32:06;;;;;;;;;21.50;18.75;;;;;19.19;71.59;101440.31;5074877;27;46032;-68
2023/09/14 04:34:31;;;;;;;;;22.00;18.50;;;;;19.20;71.67;101431.41;5087773;27;45444;-68
2023/09/14 04:36:56;;;;;;;;;17.00;15.00;;;;;19.18;71.54;101432.44;5064647;28;68105;-68
2023/09/14 04:39:22;;;;;;;;;23.00;21.25;;;;;19.16;71.47;101433.38;5068005;27;45399;-68
2023/09/14 04:41:47;;;;;;;;;19.00;17.00;;;;;19.16;71.34;101436.03;5051671;28;77814;-68
2023/09/14 04:44:12;;;;;;;;;15.25;12.50;;;;;19.15;71.30;101436.94;5056154;28;45265;-67
2023/09/14 04:46:38;;;;;;;;;23.50;18.25;;;;;19.16;71.32;101437.84;5077339;28;46115;-67
2023/09/14 04:49:04;;;;;;;;;24.25;20.50;;;;;19.13;71.14;101437.97;5067879;28;45340;-67
2023/09/14 04:51:29;;;;;;;;;18.25;17.50;;;;;19.14;71.45;101443.22;5063058;28;46970;-66
2023/09/14 04:53:54;;;;;;;;;20.75;17.75;;;;;19.13;71.53;101443.28;5062652;28;62646;-67
2023/09/14 04:56:20;;;;;;;;;23.50;18.00;;;;;19.15;71.39;101449.38;5073797;28;66954;-68
2023/09/14 04:58:45;;;;;;;;;33.25;24.75;;;;;19.15;71.55;101446.72;5073813;28;64197;-68
2023/09/14 05:01:11;;;;;;;;;24.25;17.25;;;;;19.15;71.52;101441.41;5074830;28;45921;-68
2023/09/14 05:03:36;;;;;;;;;19.75;17.00;;;;;19.13;71.76;101443.28;5076856;28;63263;-68
2023/09/14 05:06:04;;;;;;;;;19.25;18.75;;;;;19.13;71.72;101446.78;5068021;28;45484;-67
2023/09/14 05:08:29;;;;;;;;;24.00;18.50;;;;;19.11;71.17;101442.50;5068028;28;45626;-68
2023/09/14 05:10:55;;;;;;;;;28.75;20.50;;;;;19.10;71.62;101449.59;5083328;27;46208;-68
2023/09/14 05:13:20;;;;;;;;;19.00;17.75;;;;;19.07;71.68;101448.88;5074254;28;45447;-67
2023/09/14 05:15:48;;;;;;;;;23.75;18.00;;;;;19.07;72.24;101455.06;5067609;28;46284;-68
2023/09/14 05:18:14;;;;;;;;;24.75;20.00;;;;;19.04;71.96;101455.22;5067042;28;45541;-68
2023/09/14 05:20:43;;;;;;;;;20.50;19.50;;;;;19.02;71.75;101462.41;5057555;28;47005;-68
2023/09/14 05:23:09;;;;;;;;;24.25;20.25;;;;;19.00;72.21;101461.63;5071109;28;45988;-68
2023/09/14 05:25:34;;;;;;;;;21.00;18.50;;;;;18.97;72.03;101459.97;5057068;28;45431;-68
2023/09/14 05:27:59;;;;;;;;;24.25;18.00;;;;;18.94;72.39;101462.78;5072222;28;70961;-69
2023/09/14 05:30:25;;;;;;;;;23.50;22.50;;;;;18.91;72.76;101462.97;5071050;28;69977;-68
2023/09/14 05:32:51;;;;;;;;;22.75;19.50;;;;;18.90;72.94;101460.38;5076611;28;45499;-73
2023/09/14 05:35:16;;;;;;;;;27.75;20.25;;;;;18.85;73.19;101455.28;5086953;27;52946;-72
2023/09/14 05:37:42;;;;;;;;;25.00;20.25;;;;;18.87;72.62;101468.47;5069396;28;45628;-71
2023/09/14 05:40:11;;;;;;;;;31.50;23.25;;;;;18.79;73.03;101456.44;5079209;28;46459;-70
2023/09/14 05:42:39;;;;;;;;;28.25;20.25;;;;;18.75;73.21;101460.19;5052892;28;45592;-71
2023/09/14 05:45:06;;;;;;;;;26.25;21.00;;;;;18.72;73.09;101462.13;5071645;28;45475;-73
2023/09/14 05:47:32;;;;;;;;;33.25;24.75;;;;;18.66;73.84;101459.75;5049667;28;45442;-72
2023/09/14 05:49:57;;;;;;;;;15.75;14.75;;;;;18.68;73.59;101463.19;5075378;27;45416;-71
2023/09/14 05:52:24;;;;;;;;;21.00;18.00;;;;;18.62;73.96;101453.75;5060624;27;73029;-72
2023/09/14 05:54:50;;;;;;;;;22.50;19.25;;;;;18.65;73.60;101469.53;5078014;28;45423;-71
2023/09/14 05:57:16;;;;;;;;;28.25;22.50;;;;;18.65;73.73;101479.28;5073318;27;45342;-71
2023/09/14 05:59:42;;;;;;;;;25.00;20.25;;;;;18.65;73.91;101479.28;5075365;28;46068;-74
2023/09/14 06:02:18;;;;;;;;;25.00;23.25;;;;;18.63;74.06;101475.81;5077360;28;46331;-74
2023/09/14 06:04:43;;;;;;;;;23.50;19.00;;;;;18.66;73.84;101481.84;5076967;28;45472;-77
2023/09/14 06:07:09;;;;;;;;;21.75;20.00;;;;;18.66;73.84;101475.66;5057551;28;45640;-72
2023/09/14 06:09:34;;;;;;;;;24.75;22.25;;;;;18.67;73.93;101482.69;5065219;28;46578;-71
2023/09/14 06:12:01;;;;;;;;;24.25;21.00;;;;;18.65;73.94;101488.06;5068493;28;46881;-72
2023/09/14 06:14:26;;;;;;;;;22.25;22.00;;;;;18.62;74.34;101488.22;5068935;28;45393;-71
2023/09/14 06:16:53;;;;;;;;;23.25;19.00;;;;;18.66;74.26;101489.81;5072514;28;45535;-69
2023/09/14 06:19:18;;;;;;;;;24.75;19.00;;;;;18.66;73.74;101487.16;5045358;28;46584;-71
2023/09/14 06:21:44;;;;;;;;;25.25;21.00;;;;;18.63;74.18;101482.00;5075684;28;45371;-70
2023/09/14 06:24:09;;;;;;;;;25.00;21.50;;;;;18.64;73.73;101486.34;5069044;28;58435;-71
2023/09/14 06:26:34;;;;;;;;;25.00;19.75;;;;;18.60;73.94;101483.00;5071270;28;45303;-70
2023/09/14 06:29:00;;;;;;;;;27.75;19.50;;;;;18.62;74.40;101488.22;5064380;28;73151;-70
2023/09/14 06:31:26;;;;;;;;;27.75;18.75;;;;;18.63;74.48;101494.38;5066367;28;46681;-73
2023/09/14 06:33:51;;;;;;;;;30.50;23.00;;;;;18.63;74.59;101497.03;5073793;28;45458;-71
2023/09/14 06:36:18;;;;;;;;;24.50;21.00;;;;;18.64;74.22;101490.78;5070883;28;45329;-71
2023/09/14 06:38:45;;;;;;;;;28.50;24.00;;;;;18.60;73.98;101488.28;5070236;28;45507;-70
2023/09/14 06:41:12;;;;;;;;;27.75;24.25;;;;;18.63;74.34;101483.75;5067712;28;45708;-70
2023/09/14 06:43:38;;;;;;;;;50.25;38.75;;;;;18.57;74.37;101492.88;5062284;28;45404;-72
2023/09/14 06:46:03;;;;;;;;;33.25;25.00;;;;;18.51;74.49;101493.19;5072489;28;45476;-71
2023/09/14 06:48:29;;;;;;;;;27.25;23.25;;;;;18.45;74.34;101489.06;5072392;27;46253;-76
2023/09/14 06:50:55;;;;;;;;;22.25;21.75;;;;;18.39;74.34;101486.69;5061043;28;45219;-75
2023/09/14 06:53:20;;;;;;;;;26.75;21.00;;;;;18.39;74.95;101491.97;5066688;28;45340;-75
2023/09/14 06:55:45;;;;;;;;;29.50;24.75;;;;;18.37;74.87;101494.69;5072634;28;70509;-75
2023/09/14 06:58:14;;;;;;;;;28.75;25.25;;;;;18.34;75.29;101504.59;5085399;27;75469;-75
2023/09/14 07:00:40;;;;;;;;;26.00;22.50;;;;;18.34;75.03;101500.16;5070083;28;46036;-75
2023/09/14 07:03:05;;;;;;;;;31.50;27.00;;;;;18.36;74.83;101497.41;5077571;28;62890;-75
2023/09/14 07:05:32;;;;;;;;;22.25;19.00;;;;;18.35;75.08;101501.03;5077849;28;65537;-75
2023/09/14 07:07:58;;;;;;;;;26.25;22.50;;;;;18.38;74.97;101498.22;5060917;28;48291;-74
2023/09/14 07:10:23;;;;;;;;;33.75;26.75;;;;;18.44;75.21;101505.88;5079781;28;45322;-75
2023/09/14 07:12:50;;;;;;;;;29.25;26.50;;;;;18.44;75.18;101505.88;5064974;28;46002;-75
2023/09/14 07:15:15;;;;;;;;;28.75;24.25;;;;;18.46;74.96;101505.81;5060672;28;47908;-73
2023/09/14 07:17:41;;;;;;;;;30.50;24.50;;;;;18.49;74.92;101505.66;5081197;28;45244;-65
2023/09/14 07:20:08;;;;;;;;;27.00;24.50;;;;;18.47;75.22;101503.09;5061654;28;73594;-67
2023/09/14 07:22:33;;;;;;;;;34.75;28.25;;;;;18.54;75.03;101508.97;5066835;27;45274;-71
2023/09/14 07:24:59;;;;;;;;;36.50;30.00;;;;;18.57;74.80;101509.66;5077254;27;62215;-67
2023/09/14 07:27:24;;;;;;;;;32.75;29.75;;;;;18.62;75.06;101506.78;5077327;27;45650;-67
2023/09/14 07:29:50;;;;;;;;;37.50;26.50;;;;;18.68;75.00;101506.50;5070859;27;45374;-66
2023/09/14 07:32:15;;;;;;;;;27.75;24.50;;;;;18.72;74.76;101507.19;5070538;27;45382;-67
2023/09/14 07:34:41;;;;;;;;;32.50;28.75;;;;;18.78;74.74;101510.38;5078381;27;45362;-66
2023/09/14 07:37:06;;;;;;;;;31.75;26.00;;;;;18.84;74.64;101513.72;5071059;27;47588;-67
2023/09/14 07:39:31;;;;;;;;;35.25;27.50;;;;;18.86;74.06;101511.88;5070679;27;61852;-68
2023/09/14 07:41:57;;;;;;;;;38.25;29.75;;;;;18.88;74.07;101508.19;5080228;27;54578;-67
2023/09/14 07:44:22;;;;;;;;;31.75;28.00;;;;;18.90;74.07;101506.31;5077736;27;67873;-66
2023/09/14 07:46:48;;;;;;;;;34.75;27.50;;;;;18.93;74.19;101506.16;5077942;27;45445;-69
2023/09/14 07:49:13;;;;;;;;;36.50;30.00;;;;;18.99;74.12;101514.75;5072924;27;64687;-68
2023/09/14 07:51:38;;;;;;;;;16.00;14.00;;;;;19.04;73.93;101507.44;5075072;27;45426;-68
2023/09/14 07:54:04;;;;;;;;;30.00;28.75;;;;;19.04;73.68;101504.78;5065371;27;52699;-67
2023/09/14 07:56:29;;;;;;;;;32.50;28.25;;;;;19.04;73.88;101502.13;5076170;27;45620;-67
2023/09/14 07:58:56;;;;;;;;;27.75;25.25;;;;;19.07;73.35;101504.59;5074820;27;62763;-69
2023/09/14 08:01:22;;;;;;;;;37.50;29.50;;;;;19.10;73.06;101510.63;5074177;27;45340;-69
2023/09/14 08:03:47;;;;;;;;;26.25;25.25;;;;;19.11;73.38;101515.00;5079041;27;45244;-67
2023/09/14 08:06:12;;;;;;;;;35.00;30.75;;;;;19.14;73.37;101512.19;5075822;27;49253;-67
2023/09/14 08:08:38;;;;;;;;;36.50;28.50;;;;;19.15;73.46;101515.69;5077626;27;45387;-66
2023/09/14 08:11:04;;;;;;;;;27.00;21.00;;;;;19.21;73.06;101525.13;5068971;27;45362;-66
2023/09/14 08:13:29;;;;;;;;;40.50;31.00;;;;;19.26;72.91;101525.78;5071037;27;45348;-67
2023/09/14 08:15:54;;;;;;;;;34.25;30.50;;;;;19.37;72.74;101528.75;5075888;27;72960;-66
2023/09/14 08:18:20;;;;;;;;;32.75;29.00;;;;;19.44;72.87;101526.63;5059901;28;46241;-66
2023/09/14 08:20:48;;;;;;;;;30.75;25.75;;;;;19.51;72.32;101528.91;5083140;27;45222;-66
2023/09/14 08:23:19;;;;;;;;;31.00;27.25;;;;;19.59;72.11;101531.13;5079893;27;45388;-67
2023/09/14 08:25:45;;;;;;;;;33.75;28.50;;;;;19.65;71.54;101527.31;5072328;27;47021;-67
2023/09/14 08:28:13;;;;;;;;;31.25;27.00;;;;;19.72;71.80;101534.88;5049450;28;45866;-66
2023/09/14 08:30:40;;;;;;;;;37.50;30.25;;;;;19.78;71.40;101532.84;5076127;27;46915;-67
2023/09/14 08:33:06;;;;;;;;;34.00;29.75;;;;;19.86;71.37;101541.28;5073577;27;46037;-67
2023/09/14 08:35:32;;;;;;;;;41.75;31.00;;;;;19.96;71.27;101542.50;5069507;27;46399;-66
2023/09/14 08:37:57;;;;;;;;;31.00;28.50;;;;;20.07;71.07;101537.47;5069460;27;45223;-67
2023/09/14 08:40:24;;;;;;;;;40.50;30.75;;;;;20.17;70.66;101531.63;5066977;27;45428;-67
2023/09/14 08:42:51;;;;;;;;;36.50;29.75;;;;;20.27;70.23;101533.75;5075281;27;45635;-68
2023/09/14 08:45:31;;;;;;;;;32.25;28.75;;;;;20.36;70.21;101543.00;5068714;27;45488;-67
2023/09/14 08:47:58;;;;;;;;;32.25;28.75;;;;;20.41;69.57;101538.25;5076782;27;45454;-70
2023/09/14 08:50:25;;;;;;;;;39.25;31.00;;;;;20.42;69.89;101537.34;5074627;27;45379;-67
2023/09/14 08:52:51;;;;;;;;;31.25;27.25;;;;;20.41;69.79;101542.72;5078641;27;45570;-68
2023/09/14 08:55:20;;;;;;;;;31.25;28.50;;;;;20.42;69.77;101537.34;5076040;27;46780;-67
2023/09/14 08:57:47;;;;;;;;;31.00;29.00;;;;;20.52;69.75;101542.13;5050762;28;45919;-67
2023/09/14 09:00:17;;;;;;;;;31.50;25.25;;;;;20.62;69.55;101535.38;5076687;28;45451;-68
2023/09/14 09:02:48;;;;;;;;;36.00;31.75;;;;;20.72;69.50;101539.25;5077603;27;45400;-67
2023/09/14 09:05:15;;;;;;;;;32.75;27.25;;;;;20.89;68.74;101542.75;5075455;27;45468;-67
2023/09/14 09:07:41;;;;;;;;;37.00;30.25;;;;;21.05;68.95;101544.44;5077684;27;45351;-67
2023/09/14 09:10:24;;;;;;;;;37.25;30.00;;;;;21.22;68.37;101538.09;5066249;28;45415;-67
2023/09/14 09:12:50;;;;;;;;;34.50;30.75;;;;;21.37;67.77;101538.13;5062138;27;45577;-67
2023/09/14 09:15:17;;;;;;;;;39.25;30.25;;;;;21.51;67.58;101540.84;5067282;28;46981;-66
2023/09/14 09:17:44;;;;;;;;;38.25;30.00;;;;;21.67;67.22;101540.78;5076425;27;45730;-67
2023/09/14 09:20:22;;;;;;;;;36.75;29.25;;;;;21.83;66.85;101530.03;5077413;28;45420;-67
2023/09/14 09:22:50;;;;;;;;;34.25;31.50;;;;;21.92;66.42;101541.94;5052782;28;45440;-67
2023/09/14 09:25:17;;;;;;;;;37.00;27.00;;;;;21.98;65.66;101533.59;5066279;28;46256;-67
2023/09/14 09:27:43;;;;;;;;;33.00;28.75;;;;;22.01;65.33;101530.75;5061653;28;45305;-68
2023/09/14 09:30:09;;;;;;;;;33.75;30.00;;;;;22.09;65.67;101531.09;5072349;28;45378;-67
2023/09/14 09:32:38;;;;;;;;;43.50;31.50;;;;;22.13;65.48;101534.41;5059191;28;45427;-67
2023/09/14 09:35:24;;;;;;;;;39.50;31.25;;;;;22.23;65.36;101529.38;5068761;27;45975;-68
2023/09/14 09:37:50;;;;;;;;;29.00;26.75;;;;;22.27;64.66;101525.59;5071688;28;45447;-67
2023/09/14 09:40:21;;;;;;;;;37.00;29.00;;;;;22.31;64.55;101529.75;5069211;28;45491;-68
2023/09/14 09:42:47;;;;;;;;;38.50;30.25;;;;;22.32;64.58;101535.00;5075288;27;45526;-67
2023/09/14 09:45:13;;;;;;;;;17.25;17.00;;;;;22.33;63.65;101520.72;5076317;27;46126;-67
2023/09/14 09:47:39;;;;;;;;;21.25;17.25;;;;;22.41;63.67;101522.88;5073331;28;45382;-67
2023/09/14 09:50:10;;;;;;;;;22.75;17.00;;;;;22.50;63.28;101532.94;5074580;28;47217;-67
2023/09/14 09:52:36;;;;;;;;;15.75;14.00;;;;;22.60;62.84;101525.22;5058673;28;45449;-67
2023/09/14 09:55:02;;;;;;;;;20.00;16.50;;;;;22.68;62.93;101527.38;5077793;27;46152;-66
2023/09/14 09:57:30;;;;;;;;;17.50;14.50;;;;;22.80;61.85;101526.56;5057632;28;45325;-67
2023/09/14 09:59:56;;;;;;;;;15.75;15.25;;;;;22.91;62.16;101520.53;5069086;28;45586;-68
2023/09/14 10:02:31;;;;;;;;;17.50;13.25;;;;;23.08;62.03;101522.94;5071425;27;45696;-74
2023/09/14 10:04:57;;;;;;;;;16.00;13.75;;;;;23.30;61.68;101518.81;5073595;27;45338;-76
2023/09/14 10:07:23;;;;;;;;;16.25;15.75;;;;;23.50;60.84;101512.13;5073049;28;46222;-70
2023/09/14 10:09:51;;;;;;;;;20.75;16.25;;;;;23.62;60.22;101515.75;5074945;28;45275;-72
2023/09/14 10:12:18;;;;;;;;;19.25;13.00;;;;;23.72;60.04;101510.63;5078953;27;45299;-69
2023/09/14 10:14:45;;;;;;;;;14.00;12.25;;;;;23.79;59.72;101510.06;5074602;27;65042;-70
2023/09/14 10:17:11;;;;;;;;;19.50;14.75;;;;;23.83;59.51;101506.28;5053570;28;45712;-71
2023/09/14 10:19:39;;;;;;;;;15.75;14.50;;;;;23.80;59.00;101506.47;5081779;28;45332;-74
2023/09/14 10:22:05;;;;;;;;;15.50;11.75;;;;;23.82;59.00;101501.03;5083495;28;45278;-70
2023/09/14 10:24:31;;;;;;;;;12.00;11.00;;;;;23.76;59.00;101506.75;5077742;27;45414;-71
2023/09/14 10:26:57;;;;;;;;;18.25;13.50;;;;;23.69;58.83;101503.66;5069203;28;45614;-71
2023/09/14 10:29:25;;;;;;;;;18.00;14.50;;;;;23.69;58.89;101509.00;5073711;27;45417;-72
2023/09/14 10:31:53;;;;;;;;;17.25;13.25;;;;;23.72;58.88;101503.44;5072148;27;46145;-73
2023/09/14 10:34:19;;;;;;;;;22.50;15.00;;;;;23.82;58.92;101498.34;5078875;27;45465;-68
2023/09/14 10:36:45;;;;;;;;;17.75;15.25;;;;;24.00;58.60;101497.03;5071151;27;48330;-71
2023/09/14 10:39:12;;;;;;;;;16.00;13.25;;;;;24.15;57.49;101491.53;5073633;27;45351;-69
2023/09/14 10:41:37;;;;;;;;;9.75;9.00;;;;;24.18;58.03;101497.53;5065791;27;45687;-71
2023/09/14 10:44:04;;;;;;;;;12.25;10.25;;;;;24.22;57.76;101491.00;5073996;27;63961;-68
2023/09/14 10:46:33;;;;;;;;;10.25;8.00;;;;;24.28;57.49;101489.69;5068528;28;45304;-69
2023/09/14 10:48:59;;;;;;;;;14.50;10.50;;;;;24.33;57.01;101487.53;5072104;28;45529;-69
2023/09/14 10:51:26;;;;;;;;;12.25;8.25;;;;;24.41;57.31;101476.25;5069050;28;45264;-72
2023/09/14 10:53:51;;;;;;;;;12.00;10.25;;;;;24.59;56.71;101484.78;5073474;27;46076;-69
2023/09/14 10:56:31;;;;;;;;;9.50;7.75;;;;;24.70;56.37;101475.94;5070029;28;48593;-68
2023/09/14 10:58:57;;;;;;;;;9.75;9.00;;;;;24.69;55.48;101475.09;5069683;28;45351;-68
2023/09/14 11:01:27;;;;;;;;;13.00;8.75;;;;;24.63;55.94;101475.56;5073120;28;45332;-68
2023/09/14 11:04:13;;;;;;;;;13.75;9.00;;;;;24.53;54.45;101470.03;5074833;27;45437;-67
2023/09/14 11:06:48;;;;;;;;;11.00;10.25;;;;;24.44;55.45;101466.19;5068046;28;45297;-68
2023/09/14 11:09:15;;;;;;;;;13.50;10.00;;;;;24.46;56.06;101471.44;5077766;28;45278;-69